CES556 VECC-ZPPP
Flight info
| Callsign | CES556 |
|---|---|
| Flight time | 2h 1m |
| Altitude | 37000 |
| Route | NOKAT2C NOKAT DCT SUMAG B465 CTG A599 LINSO/K0820S1190 A599 GULOT GULOT1A |
| Aircraft | B738/M-SDE2E3FGHIRWXY/LB1 |
Departure
| Time | 2026-04-25 09:45 |
|---|---|
| Airport | Netaji Subhash Chandra Bose International Airport (VECC) |
Arrival
| Time | 2026-04-25 11:47 |
|---|---|
| Airport | Kunming Changshui International Airport (ZPPP) |
| Time | Latitude | Longitude | Altitude | Speed | Heading |
|---|---|---|---|---|---|
| 2026-04-25 08:47 | 22.64024 | 88.43816 | 28 ft | 0 kts | 332° |
| 2026-04-25 08:54 | 22.64013 | 88.43822 | 28 ft | 9 kts | 331° |
| 2026-04-25 08:54 | 22.63954 | 88.43839 | 28 ft | 11 kts | 159° |
| 2026-04-25 08:54 | 22.63923 | 88.43862 | 28 ft | 6 kts | 97° |
| 2026-04-25 08:54 | 22.63945 | 88.43862 | 28 ft | 8 kts | 344° |
| 2026-04-25 08:55 | 22.63996 | 88.43841 | 28 ft | 8 kts | 338° |
| 2026-04-25 08:55 | 22.64001 | 88.43839 | 28 ft | 0 kts | 338° |
| 2026-04-25 09:17 | 22.64001 | 88.43840 | 28 ft | 0 kts | 338° |
| 2026-04-25 09:27 | 22.63983 | 88.43847 | 28 ft | 4 kts | 338° |
| 2026-04-25 09:27 | 22.63958 | 88.43858 | 26 ft | 4 kts | 338° |
| 2026-04-25 09:27 | 22.63935 | 88.43866 | 28 ft | 4 kts | 3° |
| 2026-04-25 09:27 | 22.63916 | 88.43855 | 26 ft | 4 kts | 62° |
| 2026-04-25 09:28 | 22.63909 | 88.43838 | 25 ft | 1 kts | 69° |
| 2026-04-25 09:28 | 22.63908 | 88.43836 | 25 ft | 2 kts | 69° |
| 2026-04-25 09:33 | 22.63909 | 88.43838 | 25 ft | 2 kts | 69° |
| 2026-04-25 09:33 | 22.63923 | 88.43876 | 27 ft | 9 kts | 67° |
| 2026-04-25 09:33 | 22.63952 | 88.43945 | 28 ft | 11 kts | 65° |
| 2026-04-25 09:34 | 22.63982 | 88.44017 | 28 ft | 10 kts | 65° |
| 2026-04-25 09:34 | 22.64011 | 88.44087 | 28 ft | 10 kts | 63° |
| 2026-04-25 09:34 | 22.64064 | 88.44126 | 28 ft | 10 kts | 6° |
| 2026-04-25 09:34 | 22.64131 | 88.44134 | 49 ft | 10 kts | 7° |
| 2026-04-25 09:35 | 22.64196 | 88.44143 | 28 ft | 9 kts | 7° |
| 2026-04-25 09:35 | 22.64260 | 88.44152 | 28 ft | 9 kts | 7° |
| 2026-04-25 09:35 | 22.64329 | 88.44161 | 28 ft | 11 kts | 7° |
| 2026-04-25 09:35 | 22.64424 | 88.44174 | 28 ft | 16 kts | 6° |
| 2026-04-25 09:36 | 22.64559 | 88.44190 | 28 ft | 23 kts | 6° |
| 2026-04-25 09:36 | 22.64733 | 88.44213 | 28 ft | 27 kts | 7° |
| 2026-04-25 09:36 | 22.64917 | 88.44237 | 28 ft | 25 kts | 6° |
| 2026-04-25 09:36 | 22.65038 | 88.44257 | 28 ft | 13 kts | 25° |
| 2026-04-25 09:37 | 22.65074 | 88.44307 | 27 ft | 13 kts | 62° |
| 2026-04-25 09:37 | 22.65114 | 88.44392 | 27 ft | 12 kts | 58° |
| 2026-04-25 09:37 | 22.65188 | 88.44429 | 27 ft | 12 kts | 7° |
| 2026-04-25 09:37 | 22.65299 | 88.44441 | 27 ft | 12 kts | 5° |
| 2026-04-25 09:38 | 22.65360 | 88.44448 | 28 ft | 15 kts | 7° |
| 2026-04-25 09:38 | 22.65480 | 88.44464 | 28 ft | 20 kts | 7° |
| 2026-04-25 09:38 | 22.65633 | 88.44481 | 28 ft | 25 kts | 6° |
| 2026-04-25 09:38 | 22.65805 | 88.44501 | 28 ft | 16 kts | 6° |
| 2026-04-25 09:39 | 22.65885 | 88.44530 | 29 ft | 12 kts | 31° |
| 2026-04-25 09:39 | 22.65955 | 88.44576 | 29 ft | 12 kts | 32° |
| 2026-04-25 09:39 | 22.66026 | 88.44623 | 28 ft | 13 kts | 27° |
| 2026-04-25 09:40 | 22.66268 | 88.44667 | 28 ft | 22 kts | 7° |
| 2026-04-25 09:40 | 22.66432 | 88.44688 | 28 ft | 23 kts | 6° |
| 2026-04-25 09:40 | 22.66532 | 88.44725 | 24 ft | 14 kts | 38° |
| 2026-04-25 09:40 | 22.66582 | 88.44786 | 28 ft | 3 kts | 51° |
| 2026-04-25 09:41 | 22.66595 | 88.44803 | 26 ft | 3 kts | 51° |
| 2026-04-25 09:41 | 22.66611 | 88.44826 | 28 ft | 5 kts | 52° |
| 2026-04-25 09:41 | 22.66654 | 88.44876 | 26 ft | 13 kts | 40° |
| 2026-04-25 09:41 | 22.66759 | 88.44933 | 27 ft | 21 kts | 10° |
| 2026-04-25 09:42 | 22.66907 | 88.44950 | 28 ft | 21 kts | 6° |
| 2026-04-25 09:42 | 22.67053 | 88.44967 | 28 ft | 21 kts | 6° |
| 2026-04-25 09:42 | 22.67194 | 88.44983 | 29 ft | 20 kts | 6° |
| 2026-04-25 09:42 | 22.67328 | 88.45000 | 30 ft | 13 kts | 5° |
| 2026-04-25 09:43 | 22.67408 | 88.44994 | 30 ft | 10 kts | 352° |
| 2026-04-25 09:43 | 22.67447 | 88.45004 | 29 ft | 5 kts | 62° |
| 2026-04-25 09:43 | 22.67445 | 88.45010 | 29 ft | 1 kts | 116° |
| 2026-04-25 09:43 | 22.67437 | 88.45010 | 29 ft | 1 kts | 179° |
| 2026-04-25 09:44 | 22.67432 | 88.45010 | 29 ft | 0 kts | 180° |
| 2026-04-25 09:45 | 22.67399 | 88.45009 | 30 ft | 24 kts | 184° |
| 2026-04-25 09:45 | 22.66971 | 88.44958 | 28 ft | 99 kts | 186° |
| 2026-04-25 09:45 | 22.66066 | 88.44858 | 35 ft | 160 kts | 185° |
| 2026-04-25 09:45 | 22.64899 | 88.44714 | 698 ft | 164 kts | 185° |
| 2026-04-25 09:46 | 22.63792 | 88.44568 | 1752 ft | 159 kts | 185° |
| 2026-04-25 09:46 | 22.62634 | 88.44766 | 2078 ft | 191 kts | 149° |
| 2026-04-25 09:46 | 22.61796 | 88.45977 | 2220 ft | 221 kts | 111° |
| 2026-04-25 09:46 | 22.61380 | 88.47668 | 2482 ft | 246 kts | 106° |
| 2026-04-25 09:47 | 22.60927 | 88.49534 | 2841 ft | 263 kts | 108° |
| 2026-04-25 09:47 | 22.60398 | 88.51457 | 3435 ft | 270 kts | 109° |
| 2026-04-25 09:47 | 22.59836 | 88.53415 | 4053 ft | 275 kts | 109° |
| 2026-04-25 09:47 | 22.59254 | 88.55403 | 4700 ft | 277 kts | 110° |
| 2026-04-25 09:48 | 22.58676 | 88.57362 | 5350 ft | 270 kts | 110° |
| 2026-04-25 09:48 | 22.58113 | 88.59255 | 5680 ft | 267 kts | 110° |
| 2026-04-25 09:48 | 22.57525 | 88.61215 | 5720 ft | 283 kts | 110° |
| 2026-04-25 09:48 | 22.56904 | 88.63279 | 5757 ft | 292 kts | 110° |
| 2026-04-25 09:49 | 22.56383 | 88.65412 | 5787 ft | 297 kts | 94° |
| 2026-04-25 09:49 | 22.56550 | 88.67646 | 6353 ft | 298 kts | 83° |
| 2026-04-25 09:49 | 22.56823 | 88.69870 | 7076 ft | 297 kts | 82° |
| 2026-04-25 09:49 | 22.57088 | 88.72092 | 7748 ft | 299 kts | 82° |
| 2026-04-25 09:50 | 22.57344 | 88.74337 | 8444 ft | 301 kts | 82° |
| 2026-04-25 09:50 | 22.57591 | 88.76592 | 9183 ft | 303 kts | 81° |
| 2026-04-25 09:50 | 22.57833 | 88.78861 | 9884 ft | 306 kts | 81° |
| 2026-04-25 09:50 | 22.58080 | 88.81203 | 10205 ft | 324 kts | 81° |
| 2026-04-25 09:51 | 22.58339 | 88.83693 | 10504 ft | 340 kts | 81° |
| 2026-04-25 09:51 | 22.58602 | 88.86261 | 11087 ft | 345 kts | 82° |
| 2026-04-25 09:51 | 22.58865 | 88.88843 | 11806 ft | 346 kts | 82° |
| 2026-04-25 09:51 | 22.59129 | 88.91435 | 12536 ft | 348 kts | 82° |
| 2026-04-25 09:52 | 22.59357 | 88.94054 | 13249 ft | 352 kts | 86° |
| 2026-04-25 09:52 | 22.59213 | 88.96715 | 13906 ft | 356 kts | 94° |
| 2026-04-25 09:52 | 22.58924 | 88.99391 | 14538 ft | 360 kts | 96° |
| 2026-04-25 09:52 | 22.58606 | 89.02097 | 15167 ft | 364 kts | 96° |
| 2026-04-25 09:53 | 22.58281 | 89.04827 | 15809 ft | 368 kts | 96° |
| 2026-04-25 09:53 | 22.57956 | 89.07592 | 16442 ft | 372 kts | 96° |
| 2026-04-25 09:53 | 22.57635 | 89.10382 | 17071 ft | 376 kts | 96° |
| 2026-04-25 09:53 | 22.57314 | 89.13207 | 17702 ft | 380 kts | 96° |
| 2026-04-25 09:54 | 22.56994 | 89.16057 | 18277 ft | 384 kts | 96° |
| 2026-04-25 09:54 | 22.56672 | 89.18936 | 18782 ft | 388 kts | 96° |
| 2026-04-25 09:54 | 22.56348 | 89.21855 | 19272 ft | 393 kts | 96° |
| 2026-04-25 09:54 | 22.56024 | 89.24770 | 19755 ft | 398 kts | 96° |
| 2026-04-25 09:55 | 22.55691 | 89.27762 | 20252 ft | 403 kts | 96° |
| 2026-04-25 09:55 | 22.55354 | 89.30789 | 20737 ft | 407 kts | 96° |
| 2026-04-25 09:55 | 22.55014 | 89.33845 | 21212 ft | 412 kts | 97° |
| 2026-04-25 09:55 | 22.54668 | 89.36938 | 21685 ft | 416 kts | 97° |
| 2026-04-25 09:56 | 22.54318 | 89.40068 | 22149 ft | 421 kts | 97° |
| 2026-04-25 09:56 | 22.53964 | 89.43230 | 22603 ft | 425 kts | 97° |
| 2026-04-25 09:56 | 22.53605 | 89.46421 | 23047 ft | 430 kts | 97° |
| 2026-04-25 09:56 | 22.53243 | 89.49641 | 23463 ft | 434 kts | 97° |
| 2026-04-25 09:57 | 22.52876 | 89.52900 | 23818 ft | 438 kts | 97° |
| 2026-04-25 09:57 | 22.52504 | 89.56190 | 24167 ft | 443 kts | 97° |
| 2026-04-25 09:57 | 22.52129 | 89.59510 | 24518 ft | 447 kts | 97° |
| 2026-04-25 09:57 | 22.51749 | 89.62857 | 24867 ft | 451 kts | 97° |
| 2026-04-25 09:58 | 22.51365 | 89.66240 | 25212 ft | 455 kts | 97° |
| 2026-04-25 09:58 | 22.50977 | 89.69650 | 25553 ft | 459 kts | 97° |
| 2026-04-25 09:58 | 22.50585 | 89.73090 | 25889 ft | 463 kts | 97° |
| 2026-04-25 09:58 | 22.50189 | 89.76559 | 26221 ft | 467 kts | 97° |
| 2026-04-25 09:59 | 22.49790 | 89.80052 | 26549 ft | 470 kts | 97° |
| 2026-04-25 09:59 | 22.49386 | 89.83578 | 26876 ft | 474 kts | 97° |
| 2026-04-25 09:59 | 22.48983 | 89.87085 | 27189 ft | 478 kts | 97° |
| 2026-04-25 09:59 | 22.48571 | 89.90663 | 27506 ft | 482 kts | 97° |
| 2026-04-25 10:00 | 22.48155 | 89.94275 | 27827 ft | 485 kts | 97° |
| 2026-04-25 10:00 | 22.47735 | 89.97909 | 28140 ft | 488 kts | 97° |
| 2026-04-25 10:00 | 22.47312 | 90.01567 | 28437 ft | 492 kts | 97° |
| 2026-04-25 10:00 | 22.46884 | 90.05253 | 28739 ft | 495 kts | 97° |
| 2026-04-25 10:01 | 22.46453 | 90.08957 | 29037 ft | 499 kts | 97° |
| 2026-04-25 10:01 | 22.46019 | 90.12689 | 29332 ft | 502 kts | 97° |
| 2026-04-25 10:01 | 22.45581 | 90.16443 | 29619 ft | 505 kts | 97° |
| 2026-04-25 10:01 | 22.45139 | 90.20218 | 29895 ft | 508 kts | 97° |
| 2026-04-25 10:02 | 22.44694 | 90.24017 | 30133 ft | 511 kts | 97° |
| 2026-04-25 10:02 | 22.44245 | 90.27839 | 30378 ft | 513 kts | 97° |
| 2026-04-25 10:02 | 22.43794 | 90.31676 | 30615 ft | 516 kts | 97° |
| 2026-04-25 10:02 | 22.43339 | 90.35529 | 30856 ft | 518 kts | 97° |
| 2026-04-25 10:03 | 22.42881 | 90.39408 | 31073 ft | 521 kts | 97° |
| 2026-04-25 10:03 | 22.42421 | 90.43298 | 31289 ft | 524 kts | 97° |
| 2026-04-25 10:03 | 22.41956 | 90.47214 | 31525 ft | 526 kts | 97° |
| 2026-04-25 10:03 | 22.41488 | 90.51147 | 31744 ft | 528 kts | 97° |
| 2026-04-25 10:04 | 22.41019 | 90.55084 | 32019 ft | 529 kts | 97° |
| 2026-04-25 10:04 | 22.40548 | 90.59033 | 32362 ft | 529 kts | 97° |
| 2026-04-25 10:04 | 22.40077 | 90.62966 | 32708 ft | 528 kts | 97° |
| 2026-04-25 10:04 | 22.39612 | 90.66843 | 33012 ft | 528 kts | 98° |
| 2026-04-25 10:05 | 22.39139 | 90.70785 | 33278 ft | 529 kts | 98° |
| 2026-04-25 10:05 | 22.38664 | 90.74730 | 33558 ft | 530 kts | 98° |
| 2026-04-25 10:05 | 22.38187 | 90.78680 | 33864 ft | 530 kts | 98° |
| 2026-04-25 10:05 | 22.37711 | 90.82618 | 34142 ft | 529 kts | 98° |
| 2026-04-25 10:06 | 22.37234 | 90.86553 | 34436 ft | 528 kts | 98° |
| 2026-04-25 10:06 | 22.36758 | 90.90478 | 34756 ft | 526 kts | 98° |
| 2026-04-25 10:06 | 22.36282 | 90.94391 | 35054 ft | 525 kts | 98° |
| 2026-04-25 10:06 | 22.35806 | 90.98294 | 35320 ft | 524 kts | 98° |
| 2026-04-25 10:07 | 22.35329 | 91.02198 | 35599 ft | 523 kts | 98° |
| 2026-04-25 10:07 | 22.34853 | 91.06091 | 35862 ft | 522 kts | 98° |
| 2026-04-25 10:07 | 22.34377 | 91.09975 | 36145 ft | 521 kts | 98° |
| 2026-04-25 10:07 | 22.33900 | 91.13856 | 36410 ft | 521 kts | 98° |
| 2026-04-25 10:08 | 22.33423 | 91.17731 | 36653 ft | 520 kts | 98° |
| 2026-04-25 10:08 | 22.32945 | 91.21606 | 36827 ft | 521 kts | 98° |
| 2026-04-25 10:08 | 22.31979 | 91.29411 | 36813 ft | 525 kts | 98° |
| 2026-04-25 10:09 | 22.31014 | 91.37188 | 36791 ft | 519 kts | 98° |
| 2026-04-25 10:09 | 22.30105 | 91.44891 | 36805 ft | 516 kts | 98° |
| 2026-04-25 10:10 | 22.29251 | 91.52581 | 36807 ft | 515 kts | 97° |
| 2026-04-25 10:10 | 22.28385 | 91.60274 | 36819 ft | 518 kts | 98° |
| 2026-04-25 10:11 | 22.27498 | 91.68035 | 36811 ft | 522 kts | 98° |
| 2026-04-25 10:11 | 22.26602 | 91.75836 | 36810 ft | 525 kts | 98° |
| 2026-04-25 10:12 | 22.25969 | 91.83692 | 36795 ft | 526 kts | 88° |
| 2026-04-25 10:13 | 22.27440 | 91.95328 | 36796 ft | 523 kts | 78° |
| 2026-04-25 10:13 | 22.28598 | 92.03073 | 36799 ft | 522 kts | 79° |
| 2026-04-25 10:14 | 22.29674 | 92.10815 | 36800 ft | 521 kts | 80° |
| 2026-04-25 10:14 | 22.30721 | 92.18539 | 36799 ft | 519 kts | 80° |
| 2026-04-25 10:15 | 22.31769 | 92.26236 | 36801 ft | 517 kts | 80° |
| 2026-04-25 10:15 | 22.32819 | 92.33903 | 36805 ft | 515 kts | 79° |
| 2026-04-25 10:16 | 22.33870 | 92.41551 | 36798 ft | 514 kts | 79° |
| 2026-04-25 10:16 | 22.34915 | 92.49186 | 36809 ft | 514 kts | 79° |
| 2026-04-25 10:17 | 22.35955 | 92.56822 | 36804 ft | 514 kts | 79° |
| 2026-04-25 10:17 | 22.36990 | 92.64458 | 36811 ft | 514 kts | 80° |
| 2026-04-25 10:18 | 22.38024 | 92.72105 | 36838 ft | 515 kts | 80° |
| 2026-04-25 10:18 | 22.39062 | 92.79791 | 36827 ft | 518 kts | 80° |
| 2026-04-25 10:19 | 22.40102 | 92.87503 | 36844 ft | 519 kts | 80° |
| 2026-04-25 10:19 | 22.41138 | 92.95217 | 36870 ft | 519 kts | 80° |
| 2026-04-25 10:20 | 22.42173 | 93.02953 | 36867 ft | 521 kts | 80° |
| 2026-04-25 10:20 | 22.43205 | 93.10697 | 36874 ft | 520 kts | 80° |
| 2026-04-25 10:21 | 22.44234 | 93.18443 | 36883 ft | 520 kts | 80° |
| 2026-04-25 10:21 | 22.45257 | 93.26179 | 36905 ft | 519 kts | 80° |
| 2026-04-25 10:22 | 22.46267 | 93.33843 | 36968 ft | 512 kts | 80° |
| 2026-04-25 10:22 | 22.46595 | 93.36341 | 36949 ft | 501 kts | 80° |
| 2026-04-25 10:22 | 22.47234 | 93.41233 | 36913 ft | 486 kts | 80° |
| 2026-04-25 10:23 | 22.48180 | 93.48459 | 36925 ft | 485 kts | 79° |
| 2026-04-25 10:23 | 22.49124 | 93.55674 | 36909 ft | 484 kts | 80° |
| 2026-04-25 10:24 | 22.50059 | 93.62869 | 36905 ft | 482 kts | 80° |
| 2026-04-25 10:24 | 22.50987 | 93.70047 | 36900 ft | 482 kts | 80° |
| 2026-04-25 10:25 | 22.51908 | 93.77178 | 36893 ft | 482 kts | 80° |
| 2026-04-25 10:25 | 22.52831 | 93.84355 | 36867 ft | 481 kts | 80° |
| 2026-04-25 10:26 | 22.53747 | 93.91511 | 36867 ft | 480 kts | 80° |
| 2026-04-25 10:26 | 22.54659 | 93.98659 | 36842 ft | 479 kts | 80° |
| 2026-04-25 10:27 | 22.55419 | 94.04630 | 36838 ft | 478 kts | 80° |
| 2026-04-25 10:27 | 22.56321 | 94.11746 | 36828 ft | 477 kts | 80° |
| 2026-04-25 10:28 | 22.57213 | 94.18805 | 36829 ft | 477 kts | 80° |
| 2026-04-25 10:28 | 22.58108 | 94.25912 | 36815 ft | 477 kts | 79° |
| 2026-04-25 10:29 | 22.58999 | 94.33017 | 36807 ft | 476 kts | 80° |
| 2026-04-25 10:29 | 22.59885 | 94.40111 | 36800 ft | 476 kts | 80° |
| 2026-04-25 10:30 | 22.60768 | 94.47199 | 36798 ft | 476 kts | 80° |
| 2026-04-25 10:30 | 22.61648 | 94.54287 | 36797 ft | 474 kts | 80° |
| 2026-04-25 10:31 | 22.62521 | 94.61355 | 36787 ft | 473 kts | 80° |
| 2026-04-25 10:31 | 22.63390 | 94.68412 | 36780 ft | 472 kts | 80° |
| 2026-04-25 10:32 | 22.64254 | 94.75455 | 36772 ft | 471 kts | 80° |
| 2026-04-25 10:32 | 22.65114 | 94.82487 | 36774 ft | 471 kts | 80° |
| 2026-04-25 10:33 | 22.65963 | 94.89462 | 36766 ft | 470 kts | 80° |
| 2026-04-25 10:33 | 22.66820 | 94.96520 | 36768 ft | 469 kts | 80° |
| 2026-04-25 10:34 | 22.67661 | 95.03476 | 36761 ft | 469 kts | 80° |
| 2026-04-25 10:34 | 22.68504 | 95.10472 | 36757 ft | 468 kts | 80° |
| 2026-04-25 10:35 | 22.69342 | 95.17459 | 36759 ft | 467 kts | 80° |
| 2026-04-25 10:35 | 22.70176 | 95.24437 | 36756 ft | 467 kts | 81° |
| 2026-04-25 10:36 | 22.71006 | 95.31407 | 36755 ft | 466 kts | 81° |
| 2026-04-25 10:36 | 22.71832 | 95.38366 | 36748 ft | 466 kts | 81° |
| 2026-04-25 10:37 | 22.72655 | 95.45324 | 36749 ft | 466 kts | 81° |
| 2026-04-25 10:37 | 22.73474 | 95.52283 | 36745 ft | 465 kts | 81° |
| 2026-04-25 10:38 | 22.74290 | 95.59233 | 36743 ft | 465 kts | 81° |
| 2026-04-25 10:38 | 22.75102 | 95.66183 | 36744 ft | 465 kts | 81° |
| 2026-04-25 10:39 | 22.75910 | 95.73126 | 36741 ft | 465 kts | 81° |
| 2026-04-25 10:39 | 22.76716 | 95.80069 | 36743 ft | 464 kts | 81° |
| 2026-04-25 10:40 | 22.77518 | 95.87016 | 36743 ft | 464 kts | 81° |
| 2026-04-25 10:40 | 22.78316 | 95.93952 | 36747 ft | 464 kts | 81° |
| 2026-04-25 10:41 | 22.79107 | 96.00848 | 36760 ft | 464 kts | 81° |
| 2026-04-25 10:41 | 22.79899 | 96.07787 | 36768 ft | 464 kts | 81° |
| 2026-04-25 10:42 | 22.80690 | 96.14737 | 36780 ft | 465 kts | 81° |
| 2026-04-25 10:42 | 22.81478 | 96.21691 | 36784 ft | 465 kts | 81° |
| 2026-04-25 10:43 | 22.82263 | 96.28645 | 36797 ft | 465 kts | 81° |
| 2026-04-25 10:43 | 22.83045 | 96.35602 | 36814 ft | 465 kts | 81° |
| 2026-04-25 10:44 | 22.83826 | 96.42570 | 36825 ft | 466 kts | 81° |
| 2026-04-25 10:44 | 22.84605 | 96.49555 | 36822 ft | 468 kts | 81° |
| 2026-04-25 10:45 | 22.85382 | 96.56558 | 36831 ft | 467 kts | 81° |
| 2026-04-25 10:45 | 22.86150 | 96.63503 | 36828 ft | 467 kts | 81° |
| 2026-04-25 10:46 | 22.86919 | 96.70483 | 36840 ft | 466 kts | 81° |
| 2026-04-25 10:46 | 22.87686 | 96.77473 | 36843 ft | 467 kts | 81° |
| 2026-04-25 10:47 | 22.88450 | 96.84465 | 36859 ft | 467 kts | 81° |
| 2026-04-25 10:47 | 22.89212 | 96.91468 | 36851 ft | 468 kts | 81° |
| 2026-04-25 10:48 | 22.89972 | 96.98476 | 36817 ft | 467 kts | 81° |
| 2026-04-25 10:48 | 22.90721 | 97.05429 | 36873 ft | 464 kts | 81° |
| 2026-04-25 10:49 | 22.91475 | 97.12431 | 36811 ft | 472 kts | 81° |
| 2026-04-25 10:49 | 22.92240 | 97.19558 | 36864 ft | 481 kts | 81° |
| 2026-04-25 10:50 | 22.93017 | 97.26842 | 36869 ft | 492 kts | 81° |
| 2026-04-25 10:50 | 22.93808 | 97.34295 | 36863 ft | 501 kts | 81° |
| 2026-04-25 10:51 | 22.94608 | 97.41882 | 36858 ft | 511 kts | 81° |
| 2026-04-25 10:51 | 22.95419 | 97.49610 | 36838 ft | 519 kts | 81° |
| 2026-04-25 10:52 | 22.96229 | 97.57358 | 36820 ft | 521 kts | 81° |
| 2026-04-25 10:52 | 22.97042 | 97.65177 | 36827 ft | 522 kts | 81° |
| 2026-04-25 10:53 | 22.97860 | 97.72998 | 36812 ft | 521 kts | 79° |
| 2026-04-25 10:53 | 22.99677 | 97.80523 | 36834 ft | 511 kts | 65° |
| 2026-04-25 10:54 | 23.02219 | 97.87715 | 36828 ft | 510 kts | 64° |
| 2026-04-25 10:54 | 23.04761 | 97.94885 | 36834 ft | 508 kts | 64° |
| 2026-04-25 10:55 | 23.07241 | 98.02066 | 36838 ft | 507 kts | 65° |
| 2026-04-25 10:55 | 23.09684 | 98.09238 | 36839 ft | 506 kts | 65° |
| 2026-04-25 10:56 | 23.12118 | 98.16401 | 36835 ft | 505 kts | 65° |
| 2026-04-25 10:56 | 23.14548 | 98.23556 | 36842 ft | 505 kts | 64° |
| 2026-04-25 10:57 | 23.16986 | 98.30740 | 36842 ft | 507 kts | 65° |
| 2026-04-25 10:57 | 23.19420 | 98.37925 | 36838 ft | 506 kts | 65° |
| 2026-04-25 10:58 | 23.21847 | 98.45106 | 36832 ft | 506 kts | 65° |
| 2026-04-25 10:58 | 23.24277 | 98.52300 | 36816 ft | 507 kts | 65° |
| 2026-04-25 10:59 | 23.26702 | 98.59496 | 36803 ft | 507 kts | 65° |
| 2026-04-25 10:59 | 23.29125 | 98.66701 | 36821 ft | 507 kts | 65° |
| 2026-04-25 11:00 | 23.31540 | 98.73894 | 36825 ft | 506 kts | 65° |
| 2026-04-25 11:00 | 23.33949 | 98.81080 | 36827 ft | 505 kts | 65° |
| 2026-04-25 11:01 | 23.36356 | 98.88273 | 36828 ft | 506 kts | 65° |
| 2026-04-25 11:01 | 23.38718 | 98.95444 | 36838 ft | 507 kts | 66° |
| 2026-04-25 11:02 | 23.40989 | 99.02743 | 36837 ft | 506 kts | 67° |
| 2026-04-25 11:02 | 23.42095 | 99.06328 | 37057 ft | 506 kts | 67° |
| 2026-04-25 11:02 | 23.43214 | 99.09949 | 37374 ft | 504 kts | 66° |
| 2026-04-25 11:02 | 23.44338 | 99.13570 | 37587 ft | 505 kts | 66° |
| 2026-04-25 11:03 | 23.45466 | 99.17191 | 37770 ft | 506 kts | 66° |
| 2026-04-25 11:03 | 23.46600 | 99.20827 | 37957 ft | 507 kts | 66° |
| 2026-04-25 11:03 | 23.47731 | 99.24459 | 38215 ft | 507 kts | 66° |
| 2026-04-25 11:03 | 23.48862 | 99.28098 | 38494 ft | 505 kts | 66° |
| 2026-04-25 11:04 | 23.49982 | 99.31711 | 38804 ft | 500 kts | 66° |
| 2026-04-25 11:04 | 23.52220 | 99.38916 | 38866 ft | 504 kts | 66° |
| 2026-04-25 11:05 | 23.55193 | 99.45718 | 38870 ft | 493 kts | 54° |
| 2026-04-25 11:05 | 23.58635 | 99.52154 | 38862 ft | 489 kts | 53° |
| 2026-04-25 11:06 | 23.62055 | 99.58545 | 38852 ft | 487 kts | 54° |
| 2026-04-25 11:06 | 23.65409 | 99.64927 | 38863 ft | 484 kts | 55° |
| 2026-04-25 11:07 | 23.68726 | 99.71301 | 38863 ft | 482 kts | 55° |
| 2026-04-25 11:07 | 23.72018 | 99.77640 | 38875 ft | 479 kts | 55° |
| 2026-04-25 11:08 | 23.75302 | 99.83964 | 38868 ft | 484 kts | 55° |
| 2026-04-25 11:08 | 23.78629 | 99.90376 | 38887 ft | 488 kts | 55° |
| 2026-04-25 11:09 | 23.81980 | 99.96845 | 38871 ft | 488 kts | 56° |
| 2026-04-25 11:09 | 23.85284 | 100.03243 | 38867 ft | 479 kts | 56° |
| 2026-04-25 11:10 | 23.88526 | 100.09527 | 38882 ft | 471 kts | 56° |
| 2026-04-25 11:10 | 23.91752 | 100.15773 | 38894 ft | 474 kts | 56° |
| 2026-04-25 11:11 | 23.95020 | 100.22106 | 38887 ft | 481 kts | 56° |
| 2026-04-25 11:11 | 23.98302 | 100.28486 | 38885 ft | 481 kts | 56° |
| 2026-04-25 11:12 | 24.01582 | 100.34870 | 38887 ft | 482 kts | 56° |
| 2026-04-25 11:12 | 24.04850 | 100.41245 | 38896 ft | 478 kts | 56° |
| 2026-04-25 11:13 | 24.08092 | 100.47572 | 38896 ft | 476 kts | 56° |
| 2026-04-25 11:13 | 24.11331 | 100.53897 | 38910 ft | 477 kts | 56° |
| 2026-04-25 11:14 | 24.14542 | 100.60221 | 38911 ft | 478 kts | 57° |
| 2026-04-25 11:14 | 24.17742 | 100.66614 | 38906 ft | 479 kts | 57° |
| 2026-04-25 11:15 | 24.20933 | 100.73003 | 38904 ft | 477 kts | 57° |
| 2026-04-25 11:15 | 24.23582 | 100.78307 | 38913 ft | 477 kts | 57° |
| 2026-04-25 11:16 | 24.28361 | 100.87873 | 38931 ft | 478 kts | 57° |
| 2026-04-25 11:16 | 24.32082 | 100.95336 | 38953 ft | 481 kts | 57° |
| 2026-04-25 11:17 | 24.34756 | 101.00705 | 38950 ft | 483 kts | 57° |
| 2026-04-25 11:17 | 24.37953 | 101.07140 | 38951 ft | 478 kts | 57° |
| 2026-04-25 11:18 | 24.41124 | 101.13529 | 38954 ft | 476 kts | 57° |
| 2026-04-25 11:18 | 24.44283 | 101.19899 | 38965 ft | 474 kts | 57° |
| 2026-04-25 11:19 | 24.47435 | 101.26260 | 38972 ft | 476 kts | 57° |
| 2026-04-25 11:19 | 24.50614 | 101.32684 | 38892 ft | 481 kts | 57° |
| 2026-04-25 11:20 | 24.53809 | 101.39156 | 38889 ft | 483 kts | 57° |
| 2026-04-25 11:20 | 24.57010 | 101.45649 | 38881 ft | 484 kts | 57° |
| 2026-04-25 11:21 | 24.60198 | 101.52126 | 38879 ft | 478 kts | 57° |
| 2026-04-25 11:21 | 24.62594 | 101.58938 | 38332 ft | 489 kts | 83° |
| 2026-04-25 11:22 | 24.62794 | 101.62666 | 37817 ft | 488 kts | 85° |
| 2026-04-25 11:22 | 24.62916 | 101.66390 | 37202 ft | 489 kts | 86° |
| 2026-04-25 11:22 | 24.63032 | 101.70125 | 36622 ft | 488 kts | 86° |
| 2026-04-25 11:22 | 24.63163 | 101.73845 | 36139 ft | 486 kts | 85° |
| 2026-04-25 11:23 | 24.63314 | 101.77550 | 35728 ft | 483 kts | 85° |
| 2026-04-25 11:23 | 24.63479 | 101.81224 | 35294 ft | 481 kts | 85° |
| 2026-04-25 11:23 | 24.63651 | 101.84890 | 34846 ft | 479 kts | 85° |
| 2026-04-25 11:23 | 24.63824 | 101.88539 | 34401 ft | 477 kts | 85° |
| 2026-04-25 11:24 | 24.63996 | 101.92174 | 33982 ft | 475 kts | 86° |
| 2026-04-25 11:24 | 24.64166 | 101.95800 | 33478 ft | 474 kts | 86° |
| 2026-04-25 11:24 | 24.64332 | 101.99406 | 33069 ft | 471 kts | 86° |
| 2026-04-25 11:24 | 24.64497 | 102.02996 | 32627 ft | 469 kts | 86° |
| 2026-04-25 11:25 | 24.64659 | 102.06569 | 32210 ft | 466 kts | 86° |
| 2026-04-25 11:25 | 24.64820 | 102.10115 | 31790 ft | 463 kts | 86° |
| 2026-04-25 11:25 | 24.64979 | 102.13641 | 31367 ft | 460 kts | 86° |
| 2026-04-25 11:25 | 24.65134 | 102.17144 | 30930 ft | 458 kts | 86° |
| 2026-04-25 11:26 | 24.65287 | 102.20623 | 30642 ft | 451 kts | 86° |
| 2026-04-25 11:26 | 24.65436 | 102.24048 | 30117 ft | 446 kts | 86° |
| 2026-04-25 11:26 | 24.65582 | 102.27416 | 29703 ft | 438 kts | 86° |
| 2026-04-25 11:26 | 24.65741 | 102.30695 | 29254 ft | 433 kts | 85° |
| 2026-04-25 11:27 | 24.65917 | 102.33985 | 28826 ft | 430 kts | 85° |
| 2026-04-25 11:27 | 24.66098 | 102.37255 | 28406 ft | 427 kts | 85° |
| 2026-04-25 11:27 | 24.66277 | 102.40495 | 28006 ft | 423 kts | 85° |
| 2026-04-25 11:27 | 24.66395 | 102.42674 | 27726 ft | 421 kts | 85° |
| 2026-04-25 11:28 | 24.66623 | 102.46912 | 27195 ft | 418 kts | 85° |
| 2026-04-25 11:28 | 24.66792 | 102.50090 | 26789 ft | 415 kts | 86° |
| 2026-04-25 11:28 | 24.66957 | 102.53247 | 26392 ft | 412 kts | 86° |
| 2026-04-25 11:28 | 24.67121 | 102.56380 | 25991 ft | 410 kts | 86° |
| 2026-04-25 11:29 | 24.67283 | 102.59501 | 25574 ft | 408 kts | 86° |
| 2026-04-25 11:29 | 24.67444 | 102.62607 | 25209 ft | 405 kts | 86° |
| 2026-04-25 11:29 | 24.67602 | 102.65672 | 24759 ft | 399 kts | 86° |
| 2026-04-25 11:29 | 24.67757 | 102.68686 | 24384 ft | 391 kts | 86° |
| 2026-04-25 11:30 | 24.67909 | 102.71648 | 23990 ft | 385 kts | 86° |
| 2026-04-25 11:30 | 24.68058 | 102.74563 | 23607 ft | 379 kts | 86° |
| 2026-04-25 11:30 | 24.68292 | 102.77420 | 23167 ft | 372 kts | 76° |
| 2026-04-25 11:30 | 24.69259 | 102.80002 | 22780 ft | 362 kts | 56° |
| 2026-04-25 11:31 | 24.70870 | 102.82082 | 22413 ft | 356 kts | 37° |
| 2026-04-25 11:31 | 24.72820 | 102.83733 | 22089 ft | 352 kts | 33° |
| 2026-04-25 11:31 | 24.74813 | 102.85289 | 21717 ft | 351 kts | 32° |
| 2026-04-25 11:31 | 24.76813 | 102.86823 | 21369 ft | 350 kts | 32° |
| 2026-04-25 11:32 | 24.78802 | 102.88356 | 21025 ft | 349 kts | 32° |
| 2026-04-25 11:32 | 24.80782 | 102.89898 | 20681 ft | 348 kts | 33° |
| 2026-04-25 11:32 | 24.82749 | 102.91443 | 20341 ft | 347 kts | 33° |
| 2026-04-25 11:32 | 24.84707 | 102.92990 | 19997 ft | 346 kts | 33° |
| 2026-04-25 11:33 | 24.86653 | 102.94534 | 19655 ft | 345 kts | 33° |
| 2026-04-25 11:33 | 24.88597 | 102.96078 | 19295 ft | 343 kts | 33° |
| 2026-04-25 11:33 | 24.90534 | 102.97617 | 18814 ft | 342 kts | 33° |
| 2026-04-25 11:33 | 24.92451 | 102.99144 | 18420 ft | 338 kts | 33° |
| 2026-04-25 11:34 | 24.94316 | 103.00629 | 18051 ft | 334 kts | 33° |
| 2026-04-25 11:34 | 24.96194 | 103.02125 | 17693 ft | 333 kts | 33° |
| 2026-04-25 11:34 | 24.98065 | 103.03614 | 17348 ft | 331 kts | 33° |
| 2026-04-25 11:34 | 24.99931 | 103.05100 | 16994 ft | 330 kts | 33° |
| 2026-04-25 11:35 | 25.01787 | 103.06580 | 16659 ft | 329 kts | 33° |
| 2026-04-25 11:35 | 25.03642 | 103.08053 | 16315 ft | 328 kts | 32° |
| 2026-04-25 11:35 | 25.05514 | 103.09482 | 15944 ft | 327 kts | 29° |
| 2026-04-25 11:35 | 25.07418 | 103.10857 | 15575 ft | 327 kts | 32° |
| 2026-04-25 11:36 | 25.09268 | 103.12307 | 15252 ft | 325 kts | 33° |
| 2026-04-25 11:36 | 25.11091 | 103.13767 | 14955 ft | 323 kts | 33° |
| 2026-04-25 11:36 | 25.12911 | 103.15220 | 14609 ft | 323 kts | 33° |
| 2026-04-25 11:36 | 25.14737 | 103.16667 | 14214 ft | 324 kts | 32° |
| 2026-04-25 11:37 | 25.16577 | 103.18115 | 13818 ft | 325 kts | 32° |
| 2026-04-25 11:37 | 25.18426 | 103.19564 | 13423 ft | 326 kts | 33° |
| 2026-04-25 11:37 | 25.20261 | 103.21002 | 13213 ft | 319 kts | 33° |
| 2026-04-25 11:37 | 25.22051 | 103.22401 | 13073 ft | 311 kts | 33° |
| 2026-04-25 11:38 | 25.23795 | 103.23765 | 12940 ft | 303 kts | 33° |
| 2026-04-25 11:38 | 25.25492 | 103.25093 | 12824 ft | 294 kts | 32° |
| 2026-04-25 11:38 | 25.27135 | 103.26378 | 12726 ft | 285 kts | 32° |
| 2026-04-25 11:38 | 25.28752 | 103.27577 | 12645 ft | 274 kts | 22° |
| 2026-04-25 11:39 | 25.30537 | 103.28048 | 12538 ft | 259 kts | 354° |
| 2026-04-25 11:39 | 25.32251 | 103.27616 | 12320 ft | 252 kts | 331° |
| 2026-04-25 11:39 | 25.33691 | 103.26543 | 12057 ft | 250 kts | 311° |
| 2026-04-25 11:39 | 25.34825 | 103.25089 | 11828 ft | 250 kts | 306° |
| 2026-04-25 11:40 | 25.35896 | 103.23563 | 11542 ft | 251 kts | 305° |
| 2026-04-25 11:40 | 25.36898 | 103.21988 | 11263 ft | 250 kts | 292° |
| 2026-04-25 11:40 | 25.37225 | 103.20146 | 10994 ft | 245 kts | 261° |
| 2026-04-25 11:40 | 25.36551 | 103.18486 | 10755 ft | 242 kts | 231° |
| 2026-04-25 11:41 | 25.35431 | 103.17099 | 10483 ft | 243 kts | 228° |
| 2026-04-25 11:41 | 25.34262 | 103.15741 | 10230 ft | 244 kts | 225° |
| 2026-04-25 11:41 | 25.33002 | 103.14478 | 9965 ft | 244 kts | 220° |
| 2026-04-25 11:41 | 25.31705 | 103.13304 | 9877 ft | 236 kts | 219° |
| 2026-04-25 11:42 | 25.30456 | 103.12207 | 9862 ft | 222 kts | 219° |
| 2026-04-25 11:42 | 25.29286 | 103.11189 | 9861 ft | 206 kts | 219° |
| 2026-04-25 11:42 | 25.28183 | 103.10231 | 9872 ft | 200 kts | 219° |
| 2026-04-25 11:42 | 25.27088 | 103.09280 | 9886 ft | 202 kts | 219° |
| 2026-04-25 11:43 | 25.25977 | 103.08315 | 9890 ft | 204 kts | 218° |
| 2026-04-25 11:43 | 25.24857 | 103.07344 | 9891 ft | 205 kts | 219° |
| 2026-04-25 11:43 | 25.23751 | 103.06383 | 9814 ft | 198 kts | 219° |
| 2026-04-25 11:43 | 25.22686 | 103.05459 | 9590 ft | 191 kts | 219° |
| 2026-04-25 11:44 | 25.21653 | 103.04562 | 9348 ft | 185 kts | 219° |
| 2026-04-25 11:44 | 25.20668 | 103.03706 | 9118 ft | 177 kts | 218° |
| 2026-04-25 11:44 | 25.19698 | 103.02863 | 8910 ft | 178 kts | 218° |
| 2026-04-25 11:44 | 25.18717 | 103.02011 | 8690 ft | 180 kts | 218° |
| 2026-04-25 11:45 | 25.17757 | 103.01178 | 8453 ft | 169 kts | 218° |
| 2026-04-25 11:45 | 25.16848 | 103.00387 | 8267 ft | 164 kts | 218° |
| 2026-04-25 11:45 | 25.15982 | 102.99597 | 8059 ft | 159 kts | 222° |
| 2026-04-25 11:45 | 25.15193 | 102.98718 | 7884 ft | 161 kts | 225° |
| 2026-04-25 11:46 | 25.14390 | 102.97846 | 7649 ft | 164 kts | 221° |
| 2026-04-25 11:46 | 25.13536 | 102.97040 | 7376 ft | 162 kts | 217° |
| 2026-04-25 11:46 | 25.12634 | 102.96277 | 7163 ft | 165 kts | 216° |
| 2026-04-25 11:46 | 25.11732 | 102.95474 | 6967 ft | 168 kts | 215° |
| 2026-04-25 11:47 | 25.10843 | 102.94706 | 6889 ft | 149 kts | 219° |
| 2026-04-25 11:47 | 25.10149 | 102.94098 | 6893 ft | 105 kts | 218° |
| 2026-04-25 11:47 | 25.09828 | 102.93807 | 6891 ft | 31 kts | 226° |
| 2026-04-25 11:47 | 25.09740 | 102.93656 | 6893 ft | 11 kts | 244° |
| 2026-04-25 11:48 | 25.09729 | 102.93632 | 6893 ft | 1 kts | 245° |
| 2026-04-25 11:48 | 25.09726 | 102.93625 | 6893 ft | 1 kts | 245° |
| 2026-04-25 11:48 | 25.09723 | 102.93618 | 6894 ft | 1 kts | 245° |
| 2026-04-25 11:48 | 25.09720 | 102.93611 | 6894 ft | 2 kts | 245° |
| 2026-04-25 11:49 | 25.09700 | 102.93560 | 6894 ft | 12 kts | 245° |
| 2026-04-25 11:49 | 25.09676 | 102.93486 | 6894 ft | 11 kts | 269° |
| 2026-04-25 11:49 | 25.09710 | 102.93416 | 6895 ft | 14 kts | 308° |
| 2026-04-25 11:49 | 25.09773 | 102.93326 | 6895 ft | 12 kts | 310° |
| 2026-04-25 11:50 | 25.09826 | 102.93258 | 6895 ft | 11 kts | 309° |
| 2026-04-25 11:50 | 25.09840 | 102.93210 | 6895 ft | 7 kts | 240° |
| 2026-04-25 11:50 | 25.09814 | 102.93186 | 6895 ft | 4 kts | 219° |
| 2026-04-25 11:50 | 25.09791 | 102.93165 | 6895 ft | 2 kts | 219° |
| 2026-04-25 11:51 | 25.09783 | 102.93158 | 6895 ft | 1 kts | 219° |